Time;durP1;ratioP1;P1;durP2;ratioP2;P2;SDS_P1;SDS_P2;PMS_P1;PMS_P2;Temp;Humidity;BMP_temperature;BMP_pressure;BME280_temperature;BME280_humidity;BME280_pressure;Samples;Min_cycle;Max_cycle;Signal;HPM_P1;HPM_P2
2023/09/20 00:00:32;;;;;;;1.30;0.60;;;;;23.90;99922.00;;;;2590638;22;20195;-58
2023/09/20 00:01:33;;;;;;;1.23;0.60;;;;;23.90;99914.00;;;;2574250;22;20195;-57
2023/09/20 00:02:36;;;;;;;1.67;0.90;;;;;23.90;99902.00;;;;2590101;22;20219;-59
2023/09/20 00:03:36;;;;;;;1.35;0.63;;;;;23.50;99917.00;;;;2601292;22;20899;-57
2023/09/20 00:04:37;;;;;;;1.10;0.60;;;;;23.90;99921.00;;;;2590630;22;20202;-57
2023/09/20 00:05:39;;;;;;;2.90;1.20;;;;;23.90;99912.00;;;;2590984;22;20256;-57
2023/09/20 00:06:39;;;;;;;1.20;0.70;;;;;23.90;99917.00;;;;2576629;22;20222;-58
2023/09/20 00:07:40;;;;;;;1.03;0.60;;;;;23.90;99920.00;;;;2590842;22;20199;-58
2023/09/20 00:08:40;;;;;;;1.13;0.70;;;;;23.90;99921.00;;;;2589441;22;20282;-58
2023/09/20 00:09:40;;;;;;;1.00;0.60;;;;;23.90;99908.00;;;;2590105;22;20205;-58
2023/09/20 00:10:41;;;;;;;1.00;0.70;;;;;23.90;99909.00;;;;2590911;22;20196;-58
2023/09/20 00:11:43;;;;;;;1.27;0.60;;;;;23.90;99912.00;;;;2575045;22;20191;-57
2023/09/20 00:12:44;;;;;;;0.70;0.50;;;;;23.90;99913.00;;;;2589438;22;20199;-57
2023/09/20 00:13:45;;;;;;;1.20;0.68;;;;;23.90;99918.00;;;;2589858;22;20237;-57
2023/09/20 00:14:45;;;;;;;1.10;0.77;;;;;23.90;99914.00;;;;2590604;22;20195;-57
2023/09/20 00:15:46;;;;;;;0.97;0.60;;;;;23.90;99907.00;;;;2590837;22;20634;-58
2023/09/20 00:16:46;;;;;;;0.90;0.50;;;;;23.90;99905.00;;;;2576199;22;20668;-58
2023/09/20 00:17:48;;;;;;;1.07;0.60;;;;;23.90;99919.00;;;;2577881;22;20196;-58
2023/09/20 00:18:49;;;;;;;0.90;0.50;;;;;23.90;99918.00;;;;2588709;22;20218;-58
2023/09/20 00:19:49;;;;;;;1.00;0.60;;;;;23.90;99918.00;;;;2591247;22;20210;-58
2023/09/20 00:20:49;;;;;;;1.10;0.70;;;;;23.90;99921.00;;;;2587752;22;20219;-58
2023/09/20 00:21:50;;;;;;;1.20;0.60;;;;;23.90;99913.00;;;;2576138;22;20273;-58
2023/09/20 00:22:50;;;;;;;1.57;0.60;;;;;23.90;99915.00;;;;2590342;22;20223;-58
2023/09/20 00:23:51;;;;;;;1.10;0.60;;;;;23.90;99920.00;;;;2603103;22;20194;-58
2023/09/20 00:24:51;;;;;;;0.97;0.50;;;;;23.90;99920.00;;;;2601978;22;21228;-57
2023/09/20 00:25:52;;;;;;;1.43;0.67;;;;;23.90;99909.00;;;;2590736;22;20196;-61
2023/09/20 00:26:52;;;;;;;1.60;0.80;;;;;23.90;99912.00;;;;2577236;22;20191;-57
2023/09/20 00:27:52;;;;;;;1.20;0.70;;;;;23.90;99915.00;;;;2590431;22;20249;-58
2023/09/20 00:28:53;;;;;;;1.87;0.93;;;;;23.90;99915.00;;;;2589142;22;20192;-58
2023/09/20 00:29:53;;;;;;;0.90;0.50;;;;;23.90;99910.00;;;;2590098;22;20215;-58
2023/09/20 00:30:53;;;;;;;1.00;0.60;;;;;23.90;99920.00;;;;2603536;22;20191;-58
2023/09/20 00:31:54;;;;;;;1.90;0.90;;;;;23.90;99871.00;;;;2588597;22;20198;-58
2023/09/20 00:32:54;;;;;;;1.20;0.80;;;;;23.40;99909.00;;;;2590032;22;20207;-58
2023/09/20 00:33:56;;;;;;;1.67;0.80;;;;;23.90;99913.00;;;;2590550;22;20211;-57
2023/09/20 00:34:56;;;;;;;1.23;0.73;;;;;23.90;99910.00;;;;2590801;22;20400;-58
2023/09/20 00:35:57;;;;;;;1.57;1.00;;;;;23.90;99914.00;;;;2588463;22;20270;-58
2023/09/20 00:36:57;;;;;;;1.03;0.77;;;;;23.90;99909.00;;;;2593654;22;20194;-58
2023/09/20 00:37:58;;;;;;;1.60;0.77;;;;;23.90;99920.00;;;;2603141;22;20217;-58
2023/09/20 00:38:58;;;;;;;1.50;0.63;;;;;23.90;99918.00;;;;2589699;22;20241;-58
2023/09/20 00:39:58;;;;;;;1.37;0.60;;;;;23.90;99911.00;;;;2590554;22;20199;-58
2023/09/20 00:40:59;;;;;;;1.20;0.60;;;;;23.90;99908.00;;;;2577589;22;20272;-58
2023/09/20 00:41:59;;;;;;;1.10;0.80;;;;;23.90;99916.00;;;;2590424;22;20200;-58
2023/09/20 00:43:00;;;;;;;1.00;0.70;;;;;23.90;99915.00;;;;2591487;22;20196;-58
2023/09/20 00:44:00;;;;;;;1.40;0.80;;;;;23.90;99907.00;;;;2590633;22;20191;-58
2023/09/20 00:45:02;;;;;;;1.47;0.80;;;;;23.90;99918.00;;;;2591367;22;20432;-58
2023/09/20 00:46:02;;;;;;;1.58;0.70;;;;;23.90;99916.00;;;;2577108;22;20633;-58
2023/09/20 00:47:03;;;;;;;1.37;0.90;;;;;23.90;99884.00;;;;2577199;23;20199;-58
2023/09/20 00:48:05;;;;;;;1.10;0.60;;;;;23.90;99861.00;;;;2565368;22;20725;-58
2023/09/20 00:49:06;;;;;;;1.35;0.63;;;;;23.90;99912.00;;;;2576481;22;20803;-58
2023/09/20 00:50:13;;;;;;;1.23;0.60;;;;;23.90;99912.00;;;;2590404;22;20187;-57
2023/09/20 00:51:14;;;;;;;1.70;0.70;;;;;23.90;99886.00;;;;2576648;22;20295;-59
2023/09/20 00:52:14;;;;;;;1.17;0.70;;;;;23.90;99901.00;;;;2590269;22;20222;-59
2023/09/20 00:53:15;;;;;;;1.53;0.70;;;;;23.90;99904.00;;;;2589591;22;20196;-59
2023/09/20 00:54:15;;;;;;;1.30;0.73;;;;;23.40;99882.00;;;;2591133;22;20191;-59
2023/09/20 00:55:20;;;;;;;1.17;0.70;;;;;23.90;99911.00;;;;2577819;22;20188;-60
2023/09/20 00:56:21;;;;;;;1.05;0.60;;;;;23.90;99857.00;;;;2552177;22;20201;-58
2023/09/20 00:57:21;;;;;;;1.40;0.93;;;;;23.90;99912.00;;;;2578854;22;20207;-59
2023/09/20 00:58:21;;;;;;;1.60;0.63;;;;;23.90;99905.00;;;;2589827;22;20906;-60
2023/09/20 00:59:22;;;;;;;1.20;0.80;;;;;23.90;99919.00;;;;2588547;22;20276;-63
2023/09/20 01:00:27;;;;;;;2.60;1.00;;;;;23.90;99916.00;;;;2590177;22;20218;-59
2023/09/20 01:01:28;;;;;;;1.42;0.90;;;;;23.90;99910.00;;;;2575984;22;20202;-59
2023/09/20 01:02:28;;;;;;;1.40;0.70;;;;;23.90;99906.00;;;;2590403;22;20613;-60
2023/09/20 01:03:29;;;;;;;0.90;0.50;;;;;23.90;99910.00;;;;2589786;22;20257;-58
2023/09/20 01:04:29;;;;;;;2.70;0.80;;;;;23.90;99916.00;;;;2589720;22;20199;-59
2023/09/20 01:05:34;;;;;;;1.40;0.90;;;;;23.90;99916.00;;;;2603374;22;20201;-58
2023/09/20 01:06:34;;;;;;;2.08;0.70;;;;;23.90;99912.00;;;;2575964;22;20271;-59
2023/09/20 01:07:35;;;;;;;2.60;0.73;;;;;23.90;99910.00;;;;2577823;22;20248;-59
2023/09/20 01:08:35;;;;;;;1.13;0.70;;;;;23.90;99916.00;;;;2551761;23;20255;-59
2023/09/20 01:09:36;;;;;;;1.60;0.80;;;;;23.90;99915.00;;;;2576322;23;20661;-58
2023/09/20 01:10:37;;;;;;;1.25;0.80;;;;;23.90;99921.00;;;;2591472;22;20206;-59
2023/09/20 01:11:37;;;;;;;1.40;0.80;;;;;23.90;99913.00;;;;2575592;22;20969;-59
2023/09/20 01:12:37;;;;;;;1.13;0.70;;;;;23.90;99920.00;;;;2590517;22;20195;-58
2023/09/20 01:13:38;;;;;;;1.20;0.70;;;;;23.90;99904.00;;;;2589918;22;20999;-59
2023/09/20 01:14:38;;;;;;;0.87;0.60;;;;;23.90;99921.00;;;;2565322;23;20765;-59
2023/09/20 01:15:39;;;;;;;1.60;0.80;;;;;23.90;99910.00;;;;2565143;23;20708;-59
2023/09/20 01:16:39;;;;;;;0.97;0.50;;;;;23.90;99914.00;;;;2575101;22;20199;-59
2023/09/20 01:17:44;;;;;;;1.43;0.80;;;;;23.90;99907.00;;;;2590677;22;20925;-59
2023/09/20 01:18:44;;;;;;;1.50;0.88;;;;;23.90;99910.00;;;;2590624;22;20195;-58
2023/09/20 01:19:45;;;;;;;1.63;0.80;;;;;23.90;99904.00;;;;2589938;22;20203;-60
2023/09/20 01:20:45;;;;;;;1.87;0.80;;;;;23.90;99899.00;;;;2590951;22;20222;-60
2023/09/20 01:21:46;;;;;;;1.30;0.73;;;;;23.90;99920.00;;;;2576961;22;20191;-59
2023/09/20 01:22:47;;;;;;;1.00;0.70;;;;;23.90;99904.00;;;;2591094;22;20206;-59
2023/09/20 01:23:49;;;;;;;1.90;0.80;;;;;23.90;99901.00;;;;2577270;22;20685;-58
2023/09/20 01:24:49;;;;;;;1.45;0.65;;;;;23.90;99900.00;;;;2578081;22;20569;-59
2023/09/20 01:25:49;;;;;;;1.13;0.63;;;;;23.90;99904.00;;;;2589682;22;20188;-59
2023/09/20 01:26:50;;;;;;;1.43;0.70;;;;;23.90;99888.00;;;;2575673;22;20669;-58
2023/09/20 01:27:51;;;;;;;1.03;0.63;;;;;23.90;99905.00;;;;2576931;22;20534;-59
2023/09/20 01:28:52;;;;;;;1.30;0.80;;;;;23.90;99900.00;;;;2576257;22;20192;-59
2023/09/20 01:29:52;;;;;;;1.17;0.70;;;;;23.90;99904.00;;;;2590256;22;20265;-59
2023/09/20 01:30:53;;;;;;;1.10;0.60;;;;;23.90;99895.00;;;;2590272;22;20292;-62
2023/09/20 01:31:59;;;;;;;2.00;0.80;;;;;23.90;99904.00;;;;2576987;22;20184;-59
2023/09/20 01:33:01;;;;;;;1.00;0.60;;;;;23.90;99909.00;;;;2590854;22;20649;-60
2023/09/20 01:34:02;;;;;;;2.13;0.80;;;;;23.90;99897.00;;;;2591338;22;20195;-59
2023/09/20 01:35:04;;;;;;;1.20;0.80;;;;;23.90;99894.00;;;;2590783;22;20191;-59
2023/09/20 01:36:05;;;;;;;1.35;0.85;;;;;23.90;99903.00;;;;2576808;22;20744;-58
2023/09/20 01:37:05;;;;;;;1.23;0.80;;;;;23.90;99911.00;;;;2590693;22;20245;-58
2023/09/20 01:38:06;;;;;;;1.23;0.70;;;;;23.90;99905.00;;;;2590483;22;20680;-58
2023/09/20 01:39:09;;;;;;;1.03;0.63;;;;;23.90;99904.00;;;;2589687;22;20564;-59
2023/09/20 01:40:15;;;;;;;1.40;0.75;;;;;23.40;99910.00;;;;2590772;22;20450;-58
2023/09/20 01:41:18;;;;;;;1.23;0.70;;;;;23.90;99911.00;;;;2576647;22;20725;-59
2023/09/20 01:42:21;;;;;;;0.90;0.60;;;;;23.90;99917.00;;;;2590138;22;20198;-58
2023/09/20 01:43:24;;;;;;;1.00;0.60;;;;;23.90;99915.00;;;;2591363;22;20544;-58
2023/09/20 01:44:27;;;;;;;1.20;0.70;;;;;23.90;99910.00;;;;2589490;22;20665;-58
2023/09/20 01:45:27;;;;;;;1.58;0.70;;;;;23.90;99915.00;;;;2590623;22;20226;-59
2023/09/20 01:46:29;;;;;;;1.10;0.60;;;;;23.90;99913.00;;;;2576372;22;20540;-58
2023/09/20 01:47:29;;;;;;;1.10;0.90;;;;;23.90;99909.00;;;;2590751;22;20291;-58
2023/09/20 01:48:29;;;;;;;1.10;0.70;;;;;23.90;99909.00;;;;2590737;22;20724;-59
2023/09/20 01:49:32;;;;;;;1.50;0.80;;;;;23.90;99910.00;;;;2588574;22;20447;-59
2023/09/20 01:50:33;;;;;;;1.45;0.77;;;;;23.90;99906.00;;;;2578201;22;20262;-58
2023/09/20 01:51:33;;;;;;;1.40;0.77;;;;;23.90;99906.00;;;;2574891;22;20265;-58
2023/09/20 01:52:34;;;;;;;1.60;0.80;;;;;23.90;99901.00;;;;2591145;22;20202;-58
2023/09/20 01:53:34;;;;;;;1.20;0.70;;;;;23.90;99910.00;;;;2590376;22;20302;-59
2023/09/20 01:54:37;;;;;;;2.00;0.80;;;;;23.90;99912.00;;;;2591263;22;20191;-58
2023/09/20 01:55:38;;;;;;;1.10;0.75;;;;;23.90;99906.00;;;;2590915;22;20538;-58
2023/09/20 01:56:38;;;;;;;1.90;0.93;;;;;23.90;99903.00;;;;2576703;22;20267;-59
2023/09/20 01:57:39;;;;;;;1.90;0.90;;;;;23.90;99906.00;;;;2590815;22;20226;-58
2023/09/20 01:58:40;;;;;;;1.90;1.00;;;;;23.90;99907.00;;;;2590331;22;20199;-58
2023/09/20 01:59:40;;;;;;;1.20;0.60;;;;;23.90;99901.00;;;;2589660;22;20758;-59
2023/09/20 02:00:40;;;;;;;1.63;0.80;;;;;23.90;99901.00;;;;2590600;22;20195;-59
2023/09/20 02:01:41;;;;;;;1.10;0.70;;;;;23.90;99889.00;;;;2576957;22;20649;-58
2023/09/20 02:02:43;;;;;;;1.10;0.60;;;;;23.90;99901.00;;;;2590409;22;20261;-58
2023/09/20 02:03:44;;;;;;;2.63;0.93;;;;;23.90;99896.00;;;;2590981;22;20196;-58
2023/09/20 02:04:44;;;;;;;1.37;0.93;;;;;23.90;99897.00;;;;2591289;22;20201;-58
2023/09/20 02:05:48;;;;;;;1.00;0.70;;;;;23.90;99891.00;;;;2590662;22;20203;-58
2023/09/20 02:06:48;;;;;;;1.50;0.70;;;;;23.90;99891.00;;;;2562028;23;20202;-59
2023/09/20 02:07:48;;;;;;;1.13;0.70;;;;;23.90;99889.00;;;;2576664;23;20717;-59
2023/09/20 02:08:49;;;;;;;1.70;0.80;;;;;23.90;99896.00;;;;2589424;22;20195;-58
2023/09/20 02:09:49;;;;;;;1.73;0.80;;;;;23.90;99887.00;;;;2590456;22;20241;-59
2023/09/20 02:10:50;;;;;;;1.30;0.77;;;;;23.90;99889.00;;;;2590883;22;20188;-58
2023/09/20 02:11:50;;;;;;;1.77;0.80;;;;;23.90;99889.00;;;;2574199;22;20207;-58
2023/09/20 02:12:51;;;;;;;1.00;0.73;;;;;23.90;99893.00;;;;2589259;22;20191;-58
2023/09/20 02:13:53;;;;;;;1.00;0.70;;;;;23.90;99893.00;;;;2590116;22;20839;-59
2023/09/20 02:14:53;;;;;;;1.70;0.60;;;;;23.90;99883.00;;;;2587982;22;20245;-60
2023/09/20 02:15:54;;;;;;;2.60;0.90;;;;;23.90;99884.00;;;;2591109;22;20280;-59
2023/09/20 02:16:55;;;;;;;1.40;0.75;;;;;23.90;99881.00;;;;2574619;22;20766;-59
2023/09/20 02:17:55;;;;;;;0.93;0.70;;;;;23.90;99889.00;;;;2590563;22;20269;-59
2023/09/20 02:18:55;;;;;;;1.20;0.70;;;;;23.90;99878.00;;;;2589873;22;20198;-59
2023/09/20 02:19:56;;;;;;;1.83;0.80;;;;;23.90;99898.00;;;;2590491;22;20187;-58
2023/09/20 02:20:57;;;;;;;1.33;0.70;;;;;23.90;99878.00;;;;2590732;22;21020;-58
2023/09/20 02:21:57;;;;;;;1.85;0.98;;;;;23.90;99873.00;;;;2584799;22;20191;-59
2023/09/20 02:22:58;;;;;;;1.20;0.80;;;;;23.90;99888.00;;;;2590903;22;20637;-58
2023/09/20 02:23:58;;;;;;;1.27;0.77;;;;;23.90;99902.00;;;;2590501;22;20724;-58
2023/09/20 02:24:58;;;;;;;2.00;0.60;;;;;23.90;99880.00;;;;2590082;22;20608;-58
2023/09/20 02:25:59;;;;;;;1.60;0.80;;;;;23.90;99881.00;;;;2575769;22;20665;-59
2023/09/20 02:27:00;;;;;;;1.20;0.73;;;;;23.90;99880.00;;;;2590265;22;20657;-58
2023/09/20 02:28:01;;;;;;;1.30;0.60;;;;;23.90;99883.00;;;;2589765;22;20195;-59
2023/09/20 02:29:02;;;;;;;1.80;0.80;;;;;23.90;99882.00;;;;2589156;22;20199;-60
2023/09/20 02:30:04;;;;;;;1.10;0.80;;;;;23.90;99891.00;;;;2590968;22;20192;-58
2023/09/20 02:31:04;;;;;;;1.15;0.90;;;;;23.90;99876.00;;;;2576392;22;21163;-58
2023/09/20 02:32:04;;;;;;;1.57;1.03;;;;;23.90;99868.00;;;;2590634;22;20207;-59
2023/09/20 02:33:06;;;;;;;1.10;0.70;;;;;23.80;99880.00;;;;2591185;22;20191;-59
2023/09/20 02:34:08;;;;;;;1.40;0.70;;;;;23.90;99945.00;;;;2589676;22;20195;-59
2023/09/20 02:35:09;;;;;;;1.00;0.70;;;;;23.90;99879.00;;;;2590177;22;20191;-58
2023/09/20 02:36:11;;;;;;;1.37;0.70;;;;;23.90;99876.00;;;;2578300;22;20211;-59
2023/09/20 02:37:11;;;;;;;1.20;0.82;;;;;23.90;99885.00;;;;2602554;22;20240;-60
2023/09/20 02:38:12;;;;;;;2.57;1.00;;;;;23.90;99883.00;;;;2599191;22;20244;-59
2023/09/20 02:39:15;;;;;;;1.57;0.70;;;;;23.80;99884.00;;;;2589606;22;20279;-59
2023/09/20 02:40:17;;;;;;;1.50;0.80;;;;;23.80;99877.00;;;;2590970;22;20203;-60
2023/09/20 02:41:17;;;;;;;1.20;0.70;;;;;23.90;99877.00;;;;2575578;22;20869;-59
2023/09/20 02:42:22;;;;;;;1.27;0.70;;;;;23.90;99885.00;;;;2590139;22;20200;-59
2023/09/20 02:43:22;;;;;;;1.58;0.80;;;;;23.80;99881.00;;;;2590440;22;20279;-58
2023/09/20 02:44:23;;;;;;;2.27;0.90;;;;;23.90;99886.00;;;;2590961;22;20664;-59
2023/09/20 02:45:23;;;;;;;0.60;0.40;;;;;23.90;99876.00;;;;2590791;22;20656;-58
2023/09/20 02:46:23;;;;;;;1.00;0.70;;;;;23.90;99876.00;;;;2560868;23;20569;-60
2023/09/20 02:47:26;;;;;;;1.67;0.80;;;;;23.80;99876.00;;;;2576687;23;20537;-59
2023/09/20 02:48:27;;;;;;;1.55;0.80;;;;;23.90;99872.00;;;;2590928;22;20642;-58
2023/09/20 02:49:27;;;;;;;2.07;0.73;;;;;23.90;99888.00;;;;2589727;22;20199;-59
2023/09/20 02:50:27;;;;;;;1.10;0.60;;;;;22.80;99862.00;;;;2590039;22;20831;-59
2023/09/20 02:51:28;;;;;;;1.20;0.90;;;;;23.80;99861.00;;;;2576487;22;20529;-59
2023/09/20 02:52:29;;;;;;;0.97;0.60;;;;;23.90;99868.00;;;;2590631;22;20199;-59
2023/09/20 02:53:29;;;;;;;1.20;0.80;;;;;23.90;99868.00;;;;2590814;22;20203;-58
2023/09/20 02:54:30;;;;;;;1.30;0.70;;;;;23.90;99862.00;;;;2590626;22;20442;-59
2023/09/20 02:55:33;;;;;;;2.10;0.88;;;;;23.90;99863.00;;;;2589519;22;20200;-58
2023/09/20 02:56:34;;;;;;;0.80;0.50;;;;;23.90;99865.00;;;;2576850;22;20534;-59
2023/09/20 02:57:37;;;;;;;2.30;0.80;;;;;23.90;99876.00;;;;2589998;22;20283;-58
2023/09/20 02:58:38;;;;;;;2.15;0.70;;;;;23.90;99864.00;;;;2588190;22;20227;-60
2023/09/20 02:59:39;;;;;;;1.47;0.77;;;;;23.80;99860.00;;;;2589247;22;20253;-58
2023/09/20 03:00:46;;;;;;;1.08;0.75;;;;;23.80;99862.00;;;;2588007;22;20433;-58
2023/09/20 03:01:49;;;;;;;1.77;0.80;;;;;23.80;99858.00;;;;2575146;22;20207;-58
2023/09/20 03:02:51;;;;;;;1.90;1.00;;;;;23.90;99860.00;;;;2590231;22;20195;-59
2023/09/20 03:03:53;;;;;;;1.02;0.73;;;;;23.80;99862.00;;;;2577593;22;20199;-60
2023/09/20 03:04:53;;;;;;;1.10;0.60;;;;;23.80;99860.00;;;;2577349;22;20200;-59
2023/09/20 03:05:54;;;;;;;1.17;0.77;;;;;23.90;99858.00;;;;2590010;22;20923;-59
2023/09/20 03:06:54;;;;;;;2.10;1.00;;;;;23.80;99857.00;;;;2574512;22;20720;-59
2023/09/20 03:07:55;;;;;;;2.33;0.77;;;;;23.80;99880.00;;;;2588793;22;20622;-62
2023/09/20 03:08:57;;;;;;;1.00;0.80;;;;;23.80;99852.00;;;;2600985;22;20629;-59
2023/09/20 03:09:58;;;;;;;1.33;0.75;;;;;23.80;99847.00;;;;2577385;22;20196;-60
2023/09/20 03:10:59;;;;;;;1.20;0.70;;;;;23.80;99849.00;;;;2550717;22;20200;-60
2023/09/20 03:12:00;;;;;;;0.98;0.68;;;;;23.80;99846.00;;;;2589376;22;20195;-58
2023/09/20 03:13:03;;;;;;;1.87;0.87;;;;;23.80;99839.00;;;;2602302;22;20207;-59
2023/09/20 03:14:08;;;;;;;1.30;0.80;;;;;23.80;99841.00;;;;2590344;22;20230;-58
2023/09/20 03:15:10;;;;;;;2.33;0.75;;;;;23.80;99844.00;;;;2591101;22;20274;-58
2023/09/20 03:16:17;;;;;;;1.52;0.90;;;;;23.90;99843.00;;;;2575978;22;20199;-58
2023/09/20 03:17:18;;;;;;;1.27;0.70;;;;;23.80;99843.00;;;;2589800;22;20884;-59
2023/09/20 03:18:18;;;;;;;1.00;0.75;;;;;23.80;99839.00;;;;2588943;22;20266;-59
2023/09/20 03:19:20;;;;;;;1.50;0.97;;;;;23.80;99835.00;;;;2589384;22;20919;-59
2023/09/20 03:20:24;;;;;;;1.05;0.70;;;;;23.80;99837.00;;;;2589722;22;20689;-58
2023/09/20 03:21:24;;;;;;;1.15;0.77;;;;;23.80;99878.00;;;;2563381;22;20200;-58
2023/09/20 03:22:24;;;;;;;0.97;0.77;;;;;23.80;99838.00;;;;2577714;22;20196;-60
2023/09/20 03:23:25;;;;;;;1.07;0.70;;;;;23.80;99828.00;;;;2588281;22;20692;-63
2023/09/20 03:24:26;;;;;;;1.40;0.80;;;;;23.80;99837.00;;;;2590933;22;20206;-60
2023/09/20 03:25:36;;;;;;;1.20;0.77;;;;;23.80;99839.00;;;;2590342;22;20202;-59
2023/09/20 03:26:36;;;;;;;1.50;0.82;;;;;23.80;99834.00;;;;2575299;22;20203;-59
2023/09/20 03:27:40;;;;;;;1.20;0.80;;;;;23.80;99826.00;;;;2589216;22;20211;-59
2023/09/20 03:28:41;;;;;;;1.05;0.75;;;;;23.80;99830.00;;;;2590623;22;20195;-59
2023/09/20 03:29:42;;;;;;;1.50;0.80;;;;;23.80;99822.00;;;;2589919;22;20213;-59
2023/09/20 03:30:44;;;;;;;1.63;0.70;;;;;23.80;99830.00;;;;2590358;22;20822;-58
2023/09/20 03:31:44;;;;;;;1.02;0.70;;;;;23.80;99819.00;;;;2576706;22;20202;-58
2023/09/20 03:32:46;;;;;;;1.10;0.90;;;;;23.80;99825.00;;;;2589520;22;20234;-58
2023/09/20 03:33:46;;;;;;;1.33;0.80;;;;;23.30;99820.00;;;;2590065;22;21137;-59
2023/09/20 03:34:48;;;;;;;1.37;0.87;;;;;23.40;99821.00;;;;2602351;22;20191;-59
2023/09/20 03:35:48;;;;;;;1.10;0.73;;;;;23.80;99834.00;;;;2590823;22;20199;-59
2023/09/20 03:36:50;;;;;;;1.00;0.80;;;;;23.80;99824.00;;;;2575101;22;20660;-59
2023/09/20 03:37:52;;;;;;;1.20;0.80;;;;;23.80;99822.00;;;;2576733;22;20204;-59
2023/09/20 03:38:55;;;;;;;1.10;0.70;;;;;23.80;99853.00;;;;2588489;22;20203;-60
2023/09/20 03:39:55;;;;;;;0.90;0.63;;;;;23.80;99800.00;;;;2590288;22;20187;-60
2023/09/20 03:40:56;;;;;;;1.50;0.80;;;;;23.80;99809.00;;;;2590712;22;20282;-59
2023/09/20 03:41:57;;;;;;;1.40;0.82;;;;;23.60;99801.00;;;;2576621;22;20611;-59
2023/09/20 03:42:57;;;;;;;1.20;0.70;;;;;23.80;99808.00;;;;2590868;22;20196;-59
2023/09/20 03:43:57;;;;;;;1.07;0.77;;;;;23.80;99811.00;;;;2590493;22;20195;-58
2023/09/20 03:44:58;;;;;;;1.23;0.80;;;;;23.80;99812.00;;;;2590167;22;20187;-58
2023/09/20 03:45:59;;;;;;;1.37;0.60;;;;;23.80;99811.00;;;;2576933;22;20195;-60
2023/09/20 03:47:00;;;;;;;1.83;0.82;;;;;23.80;99803.00;;;;2590270;22;20557;-59
2023/09/20 03:48:01;;;;;;;1.13;0.80;;;;;23.80;99817.00;;;;2590018;22;20191;-59
2023/09/20 03:49:01;;;;;;;1.50;0.80;;;;;23.50;99817.00;;;;2589308;22;20246;-60
2023/09/20 03:50:06;;;;;;;1.33;0.80;;;;;23.80;99808.00;;;;2590546;22;20262;-59
2023/09/20 03:51:17;;;;;;;1.83;0.70;;;;;23.80;99818.00;;;;2575327;22;20202;-59
2023/09/20 03:52:18;;;;;;;1.65;0.90;;;;;23.80;99807.00;;;;2578589;22;20208;-59
2023/09/20 03:53:18;;;;;;;1.53;0.60;;;;;23.80;99802.00;;;;2589276;22;20195;-59
2023/09/20 03:54:18;;;;;;;1.30;0.90;;;;;23.80;99819.00;;;;2590135;22;20207;-59
2023/09/20 03:55:19;;;;;;;1.17;1.07;;;;;23.70;99779.00;;;;2589618;22;20724;-59
2023/09/20 03:56:20;;;;;;;1.90;1.00;;;;;23.80;99804.00;;;;2574888;22;20968;-59
2023/09/20 03:57:24;;;;;;;1.20;0.80;;;;;23.80;99810.00;;;;2602228;22;20680;-58
2023/09/20 03:58:25;;;;;;;1.35;0.75;;;;;23.80;99817.00;;;;2590358;22;20199;-59
2023/09/20 03:59:26;;;;;;;1.27;0.65;;;;;23.80;99810.00;;;;2588275;22;20199;-59
2023/09/20 04:00:31;;;;;;;1.23;0.90;;;;;23.80;99807.00;;;;2590829;22;20634;-59
2023/09/20 04:01:34;;;;;;;1.48;0.80;;;;;23.80;99798.00;;;;2575918;22;20434;-58
2023/09/20 04:02:34;;;;;;;1.38;0.93;;;;;23.80;99810.00;;;;2588992;22;20199;-58
2023/09/20 04:03:35;;;;;;;1.90;1.00;;;;;23.80;99805.00;;;;2590266;22;20234;-58
2023/09/20 04:04:35;;;;;;;1.23;0.90;;;;;23.80;99803.00;;;;2590291;22;20642;-58
2023/09/20 04:05:35;;;;;;;2.17;0.90;;;;;23.80;99806.00;;;;2590836;22;20700;-59
2023/09/20 04:06:36;;;;;;;1.53;1.10;;;;;23.80;99799.00;;;;2576554;22;20507;-59
2023/09/20 04:07:37;;;;;;;2.00;0.87;;;;;23.80;99797.00;;;;2589421;22;20214;-59
2023/09/20 04:08:37;;;;;;;6.20;0.90;;;;;23.80;99796.00;;;;2590446;22;20274;-59
2023/09/20 04:09:38;;;;;;;1.93;0.80;;;;;23.80;99791.00;;;;2588871;22;20418;-59
2023/09/20 04:10:39;;;;;;;1.93;0.50;;;;;23.80;99790.00;;;;2587530;22;20184;-59
2023/09/20 04:11:40;;;;;;;1.67;0.90;;;;;23.80;99783.00;;;;2576101;22;20711;-58
2023/09/20 04:12:41;;;;;;;2.05;0.98;;;;;23.80;99785.00;;;;2589105;22;20672;-58
2023/09/20 04:13:41;;;;;;;1.10;0.77;;;;;23.80;99786.00;;;;2590051;22;20195;-59
2023/09/20 04:14:41;;;;;;;1.50;0.70;;;;;23.80;99783.00;;;;2589666;22;20191;-58
2023/09/20 04:15:42;;;;;;;0.97;0.70;;;;;23.80;99775.00;;;;2589154;22;20218;-59
2023/09/20 04:16:43;;;;;;;1.27;0.83;;;;;23.80;99776.00;;;;2574838;22;20198;-59
2023/09/20 04:17:43;;;;;;;1.57;0.93;;;;;23.80;99782.00;;;;2588783;22;20201;-58
2023/09/20 04:18:44;;;;;;;1.40;0.80;;;;;23.80;99781.00;;;;2590102;22;20700;-58
2023/09/20 04:19:44;;;;;;;1.50;0.90;;;;;23.80;99769.00;;;;2589063;22;20204;-60
2023/09/20 04:20:48;;;;;;;1.20;0.70;;;;;23.80;99775.00;;;;2590420;22;20195;-59
2023/09/20 04:21:49;;;;;;;1.65;0.88;;;;;23.80;99779.00;;;;2575675;22;20191;-58
2023/09/20 04:22:50;;;;;;;1.20;0.73;;;;;23.80;99775.00;;;;2590442;22;20184;-59
2023/09/20 04:23:50;;;;;;;1.23;0.80;;;;;23.80;99777.00;;;;2590058;22;20196;-58
2023/09/20 04:24:50;;;;;;;1.07;0.77;;;;;23.80;99780.00;;;;2590572;22;20222;-58
2023/09/20 04:25:51;;;;;;;1.60;0.83;;;;;23.80;99780.00;;;;2590218;22;20192;-59
2023/09/20 04:26:52;;;;;;;1.60;1.10;;;;;23.80;99774.00;;;;2586967;22;20199;-59
2023/09/20 04:27:53;;;;;;;1.17;0.80;;;;;23.80;99783.00;;;;2602043;22;20195;-60
2023/09/20 04:28:55;;;;;;;1.87;0.93;;;;;23.80;99778.00;;;;2590069;22;20192;-59
2023/09/20 04:29:56;;;;;;;1.40;1.00;;;;;23.80;99785.00;;;;2590691;22;20970;-58
2023/09/20 04:30:57;;;;;;;2.27;0.80;;;;;23.80;99784.00;;;;2589695;22;20207;-60
2023/09/20 04:31:57;;;;;;;1.20;0.90;;;;;23.80;99779.00;;;;2579926;22;20195;-58
2023/09/20 04:32:58;;;;;;;1.83;0.90;;;;;23.80;99772.00;;;;2589293;22;20426;-58
2023/09/20 04:33:58;;;;;;;1.33;0.70;;;;;23.80;99772.00;;;;2590043;22;20210;-58
2023/09/20 04:34:58;;;;;;;1.37;0.60;;;;;23.80;99776.00;;;;2602332;22;20233;-58
2023/09/20 04:36:00;;;;;;;1.00;0.77;;;;;23.80;99779.00;;;;2587467;22;20486;-59
2023/09/20 04:37:01;;;;;;;1.77;0.90;;;;;23.80;99776.00;;;;2590622;22;20199;-58
2023/09/20 04:38:02;;;;;;;1.27;0.80;;;;;23.80;99772.00;;;;2589254;22;20261;-59
2023/09/20 04:39:04;;;;;;;1.87;1.20;;;;;23.80;99778.00;;;;2588508;22;20492;-58
2023/09/20 04:40:08;;;;;;;1.77;0.82;;;;;23.80;99774.00;;;;2576751;22;20698;-59
2023/09/20 04:41:11;;;;;;;1.15;0.75;;;;;23.80;99771.00;;;;2575632;22;20214;-59
2023/09/20 04:42:13;;;;;;;1.40;0.80;;;;;23.80;99775.00;;;;2590161;22;20203;-59
2023/09/20 04:43:14;;;;;;;1.50;1.10;;;;;23.80;99776.00;;;;2590807;22;20215;-58
2023/09/20 04:44:15;;;;;;;1.70;0.80;;;;;23.80;99785.00;;;;2590859;22;20211;-59
2023/09/20 04:45:19;;;;;;;1.00;0.70;;;;;23.80;99775.00;;;;2589635;22;20230;-59
2023/09/20 04:46:20;;;;;;;1.40;1.00;;;;;23.80;99768.00;;;;2575152;22;20210;-59
2023/09/20 04:47:20;;;;;;;1.10;0.80;;;;;23.80;99852.00;;;;2590023;22;20226;-59
2023/09/20 04:48:21;;;;;;;3.83;0.80;;;;;23.80;99771.00;;;;2590460;22;20505;-59
2023/09/20 04:49:21;;;;;;;1.53;0.87;;;;;23.80;99767.00;;;;2588850;22;20203;-59
2023/09/20 04:50:21;;;;;;;1.53;0.90;;;;;23.80;99768.00;;;;2590888;22;20195;-59
2023/09/20 04:51:22;;;;;;;1.30;0.80;;;;;23.80;99775.00;;;;2576073;22;20210;-59
2023/09/20 04:52:23;;;;;;;2.40;0.83;;;;;23.80;99774.00;;;;2591252;22;20246;-58
2023/09/20 04:53:23;;;;;;;1.70;0.90;;;;;23.80;99767.00;;;;2591227;22;20203;-59
2023/09/20 04:54:24;;;;;;;1.37;0.90;;;;;23.80;99773.00;;;;2591051;22;20463;-59
2023/09/20 04:55:25;;;;;;;2.33;1.10;;;;;23.80;99778.00;;;;2591522;22;20196;-59
2023/09/20 04:56:27;;;;;;;1.60;0.93;;;;;23.80;99771.00;;;;2576678;22;20227;-59
2023/09/20 04:57:28;;;;;;;1.98;0.73;;;;;23.80;99775.00;;;;2589919;22;20657;-58
2023/09/20 04:58:28;;;;;;;1.20;0.97;;;;;23.80;99781.00;;;;2589720;22;20200;-58
2023/09/20 04:59:29;;;;;;;2.00;0.80;;;;;23.80;99772.00;;;;2601957;22;20201;-58
2023/09/20 05:00:37;;;;;;;1.60;0.70;;;;;23.80;99779.00;;;;2591229;22;20252;-59
2023/09/20 05:01:37;;;;;;;1.17;0.70;;;;;23.80;99783.00;;;;2575819;22;20663;-59
2023/09/20 05:02:38;;;;;;;1.70;1.20;;;;;23.80;99794.00;;;;2590725;22;20207;-59
2023/09/20 05:03:39;;;;;;;1.80;1.10;;;;;23.80;99786.00;;;;2591395;22;20200;-59
2023/09/20 05:04:40;;;;;;;1.30;0.90;;;;;23.80;99786.00;;;;2590685;22;20199;-58
2023/09/20 05:05:41;;;;;;;1.83;0.83;;;;;23.80;99788.00;;;;2591493;22;20215;-59
2023/09/20 05:06:42;;;;;;;1.85;0.95;;;;;23.80;99785.00;;;;2576824;22;20196;-60